sensor_id;sensor_type;location;lat;lon;timestamp;temperature;humidity
5792;DHT22;2922;53.482;10.006;2023-05-07T00:01:13;9.30;99.90
5792;DHT22;2922;53.482;10.006;2023-05-07T00:03:39;9.30;99.90
5792;DHT22;2922;53.482;10.006;2023-05-07T00:06:04;9.30;99.90
5792;DHT22;2922;53.482;10.006;2023-05-07T00:08:30;9.30;99.90
5792;DHT22;2922;53.482;10.006;2023-05-07T00:10:55;9.30;99.90
5792;DHT22;2922;53.482;10.006;2023-05-07T00:13:21;9.30;99.90
5792;DHT22;2922;53.482;10.006;2023-05-07T00:15:47;9.30;99.90
5792;DHT22;2922;53.482;10.006;2023-05-07T00:18:12;9.30;99.90
5792;DHT22;2922;53.482;10.006;2023-05-07T00:20:38;9.30;99.90
5792;DHT22;2922;53.482;10.006;2023-05-07T00:23:03;9.30;99.90
5792;DHT22;2922;53.482;10.006;2023-05-07T00:25:29;9.30;99.90
5792;DHT22;2922;53.482;10.006;2023-05-07T00:27:54;9.30;99.90
5792;DHT22;2922;53.482;10.006;2023-05-07T00:30:20;9.30;99.90
5792;DHT22;2922;53.482;10.006;2023-05-07T00:32:46;9.30;99.90
5792;DHT22;2922;53.482;10.006;2023-05-07T00:35:11;9.30;99.90
5792;DHT22;2922;53.482;10.006;2023-05-07T00:37:37;9.30;99.90
5792;DHT22;2922;53.482;10.006;2023-05-07T00:40:03;9.30;99.90
5792;DHT22;2922;53.482;10.006;2023-05-07T00:42:32;9.40;99.90
5792;DHT22;2922;53.482;10.006;2023-05-07T00:44:58;9.30;99.90
5792;DHT22;2922;53.482;10.006;2023-05-07T00:47:25;9.30;99.90
5792;DHT22;2922;53.482;10.006;2023-05-07T00:49:50;9.30;99.90
5792;DHT22;2922;53.482;10.006;2023-05-07T00:52:17;9.30;99.90
5792;DHT22;2922;53.482;10.006;2023-05-07T00:54:44;9.30;99.90
5792;DHT22;2922;53.482;10.006;2023-05-07T00:57:11;9.30;99.90
5792;DHT22;2922;53.482;10.006;2023-05-07T00:59:37;9.30;99.90
5792;DHT22;2922;53.482;10.006;2023-05-07T01:02:02;9.30;99.90
5792;DHT22;2922;53.482;10.006;2023-05-07T01:04:29;9.30;99.90
5792;DHT22;2922;53.482;10.006;2023-05-07T01:06:55;9.30;99.90
5792;DHT22;2922;53.482;10.006;2023-05-07T01:09:23;9.30;99.90
5792;DHT22;2922;53.482;10.006;2023-05-07T01:11:50;9.30;99.90
5792;DHT22;2922;53.482;10.006;2023-05-07T01:14:17;9.30;99.90
5792;DHT22;2922;53.482;10.006;2023-05-07T01:16:43;9.30;99.90
5792;DHT22;2922;53.482;10.006;2023-05-07T01:19:11;9.30;99.90
5792;DHT22;2922;53.482;10.006;2023-05-07T01:21:39;9.30;99.90
5792;DHT22;2922;53.482;10.006;2023-05-07T01:24:09;9.30;99.90
5792;DHT22;2922;53.482;10.006;2023-05-07T01:26:35;9.30;99.90
5792;DHT22;2922;53.482;10.006;2023-05-07T01:29:00;9.30;99.90
5792;DHT22;2922;53.482;10.006;2023-05-07T01:31:26;9.30;99.90
5792;DHT22;2922;53.482;10.006;2023-05-07T01:33:52;9.30;99.90
5792;DHT22;2922;53.482;10.006;2023-05-07T01:36:20;9.30;99.90
5792;DHT22;2922;53.482;10.006;2023-05-07T01:38:48;9.30;99.90
5792;DHT22;2922;53.482;10.006;2023-05-07T01:41:13;9.30;99.90
5792;DHT22;2922;53.482;10.006;2023-05-07T01:43:40;9.30;99.90
5792;DHT22;2922;53.482;10.006;2023-05-07T01:46:07;9.30;99.90
5792;DHT22;2922;53.482;10.006;2023-05-07T01:48:34;9.30;99.90
5792;DHT22;2922;53.482;10.006;2023-05-07T01:51:01;9.30;99.90
5792;DHT22;2922;53.482;10.006;2023-05-07T01:53:27;9.40;99.90
5792;DHT22;2922;53.482;10.006;2023-05-07T01:55:53;9.30;99.90
5792;DHT22;2922;53.482;10.006;2023-05-07T01:58:19;9.30;99.90
5792;DHT22;2922;53.482;10.006;2023-05-07T02:00:44;9.30;99.90
5792;DHT22;2922;53.482;10.006;2023-05-07T02:03:10;9.30;99.90
5792;DHT22;2922;53.482;10.006;2023-05-07T02:05:35;9.30;99.90
5792;DHT22;2922;53.482;10.006;2023-05-07T02:08:01;9.30;99.90
5792;DHT22;2922;53.482;10.006;2023-05-07T02:10:27;9.30;99.90
5792;DHT22;2922;53.482;10.006;2023-05-07T02:12:52;9.30;99.90
5792;DHT22;2922;53.482;10.006;2023-05-07T02:15:18;9.30;99.90
5792;DHT22;2922;53.482;10.006;2023-05-07T02:18:03;9.30;99.90
5792;DHT22;2922;53.482;10.006;2023-05-07T02:20:29;9.30;99.90
5792;DHT22;2922;53.482;10.006;2023-05-07T02:22:55;9.30;99.90
5792;DHT22;2922;53.482;10.006;2023-05-07T02:25:20;9.30;99.90
5792;DHT22;2922;53.482;10.006;2023-05-07T02:27:46;9.30;99.90
5792;DHT22;2922;53.482;10.006;2023-05-07T02:30:12;9.30;99.90
5792;DHT22;2922;53.482;10.006;2023-05-07T02:32:37;9.30;99.90
5792;DHT22;2922;53.482;10.006;2023-05-07T02:35:03;9.30;99.90
5792;DHT22;2922;53.482;10.006;2023-05-07T02:37:29;9.30;99.90
5792;DHT22;2922;53.482;10.006;2023-05-07T02:39:54;9.30;99.90
5792;DHT22;2922;53.482;10.006;2023-05-07T02:42:20;9.30;99.90
5792;DHT22;2922;53.482;10.006;2023-05-07T02:44:45;9.30;99.90
5792;DHT22;2922;53.482;10.006;2023-05-07T02:47:11;9.40;99.90
5792;DHT22;2922;53.482;10.006;2023-05-07T02:49:38;9.30;99.90
5792;DHT22;2922;53.482;10.006;2023-05-07T02:52:04;9.30;99.90
5792;DHT22;2922;53.482;10.006;2023-05-07T02:54:30;9.30;99.90
5792;DHT22;2922;53.482;10.006;2023-05-07T02:56:55;9.40;99.90
5792;DHT22;2922;53.482;10.006;2023-05-07T02:59:21;9.30;99.90
5792;DHT22;2922;53.482;10.006;2023-05-07T03:01:47;9.30;99.90
5792;DHT22;2922;53.482;10.006;2023-05-07T03:04:13;9.40;99.90
5792;DHT22;2922;53.482;10.006;2023-05-07T03:06:39;9.30;99.90
5792;DHT22;2922;53.482;10.006;2023-05-07T03:09:04;9.40;99.90
5792;DHT22;2922;53.482;10.006;2023-05-07T03:11:30;9.40;99.90
5792;DHT22;2922;53.482;10.006;2023-05-07T03:13:55;9.40;99.90
5792;DHT22;2922;53.482;10.006;2023-05-07T03:16:21;9.40;99.90
5792;DHT22;2922;53.482;10.006;2023-05-07T03:18:47;9.30;99.90
5792;DHT22;2922;53.482;10.006;2023-05-07T03:21:12;9.30;99.90
5792;DHT22;2922;53.482;10.006;2023-05-07T03:23:38;9.30;99.90
5792;DHT22;2922;53.482;10.006;2023-05-07T03:26:04;9.30;99.90
5792;DHT22;2922;53.482;10.006;2023-05-07T03:28:29;9.30;99.90
5792;DHT22;2922;53.482;10.006;2023-05-07T03:30:55;9.30;99.90
5792;DHT22;2922;53.482;10.006;2023-05-07T03:33:20;9.30;99.90
5792;DHT22;2922;53.482;10.006;2023-05-07T03:35:46;9.30;99.90
5792;DHT22;2922;53.482;10.006;2023-05-07T03:38:11;9.40;99.90
5792;DHT22;2922;53.482;10.006;2023-05-07T03:40:37;9.30;99.90
5792;DHT22;2922;53.482;10.006;2023-05-07T03:43:03;9.30;99.90
5792;DHT22;2922;53.482;10.006;2023-05-07T03:45:28;9.40;99.90
5792;DHT22;2922;53.482;10.006;2023-05-07T03:47:54;9.30;99.90
5792;DHT22;2922;53.482;10.006;2023-05-07T03:50:19;9.30;99.90
5792;DHT22;2922;53.482;10.006;2023-05-07T03:52:45;9.30;99.90
5792;DHT22;2922;53.482;10.006;2023-05-07T03:55:11;9.30;99.90
5792;DHT22;2922;53.482;10.006;2023-05-07T03:57:36;9.30;99.90
5792;DHT22;2922;53.482;10.006;2023-05-07T04:00:02;9.30;99.90
5792;DHT22;2922;53.482;10.006;2023-05-07T04:02:29;9.30;99.90
5792;DHT22;2922;53.482;10.006;2023-05-07T04:04:55;9.30;99.90
5792;DHT22;2922;53.482;10.006;2023-05-07T04:07:22;9.30;99.90
5792;DHT22;2922;53.482;10.006;2023-05-07T04:09:47;9.30;99.90
5792;DHT22;2922;53.482;10.006;2023-05-07T04:12:13;9.30;99.90
5792;DHT22;2922;53.482;10.006;2023-05-07T04:14:38;9.30;99.90
5792;DHT22;2922;53.482;10.006;2023-05-07T04:17:04;9.30;99.90
5792;DHT22;2922;53.482;10.006;2023-05-07T04:19:33;9.30;99.90
5792;DHT22;2922;53.482;10.006;2023-05-07T04:21:59;9.30;99.90
5792;DHT22;2922;53.482;10.006;2023-05-07T04:24:24;9.30;99.90
5792;DHT22;2922;53.482;10.006;2023-05-07T04:26:50;9.30;99.90
5792;DHT22;2922;53.482;10.006;2023-05-07T04:29:16;9.30;99.90
5792;DHT22;2922;53.482;10.006;2023-05-07T04:31:42;9.40;99.90
5792;DHT22;2922;53.482;10.006;2023-05-07T04:34:10;9.40;99.90
5792;DHT22;2922;53.482;10.006;2023-05-07T04:36:37;9.40;99.90
5792;DHT22;2922;53.482;10.006;2023-05-07T04:39:03;9.40;99.90
5792;DHT22;2922;53.482;10.006;2023-05-07T04:41:29;9.40;99.90
5792;DHT22;2922;53.482;10.006;2023-05-07T04:43:55;9.40;99.90
5792;DHT22;2922;53.482;10.006;2023-05-07T04:46:22;9.40;99.90
5792;DHT22;2922;53.482;10.006;2023-05-07T04:48:47;9.50;99.90
5792;DHT22;2922;53.482;10.006;2023-05-07T04:51:13;9.50;99.90
5792;DHT22;2922;53.482;10.006;2023-05-07T04:53:38;9.50;99.90
5792;DHT22;2922;53.482;10.006;2023-05-07T04:56:04;9.50;99.90
5792;DHT22;2922;53.482;10.006;2023-05-07T04:58:30;9.50;99.90
5792;DHT22;2922;53.482;10.006;2023-05-07T05:00:57;9.50;99.90
5792;DHT22;2922;53.482;10.006;2023-05-07T05:03:23;9.50;99.90
5792;DHT22;2922;53.482;10.006;2023-05-07T05:05:50;9.60;99.90
5792;DHT22;2922;53.482;10.006;2023-05-07T05:08:15;9.60;99.90
5792;DHT22;2922;53.482;10.006;2023-05-07T05:10:41;9.60;99.90
5792;DHT22;2922;53.482;10.006;2023-05-07T05:13:07;9.60;99.90
5792;DHT22;2922;53.482;10.006;2023-05-07T05:15:33;9.60;99.90
5792;DHT22;2922;53.482;10.006;2023-05-07T05:17:59;9.60;99.90
5792;DHT22;2922;53.482;10.006;2023-05-07T05:20:24;9.70;99.90
5792;DHT22;2922;53.482;10.006;2023-05-07T05:22:50;9.70;99.90
5792;DHT22;2922;53.482;10.006;2023-05-07T05:25:15;9.70;99.90
5792;DHT22;2922;53.482;10.006;2023-05-07T05:27:41;9.70;99.90
5792;DHT22;2922;53.482;10.006;2023-05-07T05:30:07;9.70;99.90
5792;DHT22;2922;53.482;10.006;2023-05-07T05:32:32;9.60;99.90
5792;DHT22;2922;53.482;10.006;2023-05-07T05:34:58;9.60;99.90
5792;DHT22;2922;53.482;10.006;2023-05-07T05:37:23;9.60;99.90
5792;DHT22;2922;53.482;10.006;2023-05-07T05:39:50;9.60;99.90
5792;DHT22;2922;53.482;10.006;2023-05-07T05:42:15;9.60;99.90
5792;DHT22;2922;53.482;10.006;2023-05-07T05:44:41;9.60;99.90
5792;DHT22;2922;53.482;10.006;2023-05-07T05:47:06;9.60;99.90
5792;DHT22;2922;53.482;10.006;2023-05-07T05:49:32;9.60;99.90
5792;DHT22;2922;53.482;10.006;2023-05-07T05:51:58;9.60;99.90
5792;DHT22;2922;53.482;10.006;2023-05-07T05:54:23;9.60;99.90
5792;DHT22;2922;53.482;10.006;2023-05-07T05:56:49;9.60;99.90
5792;DHT22;2922;53.482;10.006;2023-05-07T05:59:14;9.70;99.90
5792;DHT22;2922;53.482;10.006;2023-05-07T06:01:40;9.70;99.90
5792;DHT22;2922;53.482;10.006;2023-05-07T06:04:05;9.70;99.90
5792;DHT22;2922;53.482;10.006;2023-05-07T06:06:31;9.70;99.90
5792;DHT22;2922;53.482;10.006;2023-05-07T06:08:57;9.80;99.90
5792;DHT22;2922;53.482;10.006;2023-05-07T06:11:23;9.80;99.90
5792;DHT22;2922;53.482;10.006;2023-05-07T06:13:48;9.80;99.90
5792;DHT22;2922;53.482;10.006;2023-05-07T06:16:14;9.80;99.90
5792;DHT22;2922;53.482;10.006;2023-05-07T06:18:40;9.90;99.90
5792;DHT22;2922;53.482;10.006;2023-05-07T06:21:06;9.90;99.90
5792;DHT22;2922;53.482;10.006;2023-05-07T06:23:31;9.90;99.90
5792;DHT22;2922;53.482;10.006;2023-05-07T06:25:57;9.90;99.90
5792;DHT22;2922;53.482;10.006;2023-05-07T06:28:22;10.00;99.90
5792;DHT22;2922;53.482;10.006;2023-05-07T06:30:48;10.00;99.90
5792;DHT22;2922;53.482;10.006;2023-05-07T06:33:15;10.00;99.90
5792;DHT22;2922;53.482;10.006;2023-05-07T06:35:41;10.10;99.90
5792;DHT22;2922;53.482;10.006;2023-05-07T06:38:06;10.10;99.90
5792;DHT22;2922;53.482;10.006;2023-05-07T06:40:32;10.20;99.90
5792;DHT22;2922;53.482;10.006;2023-05-07T06:42:58;10.20;99.90
5792;DHT22;2922;53.482;10.006;2023-05-07T06:45:23;10.20;99.90
5792;DHT22;2922;53.482;10.006;2023-05-07T06:47:50;10.20;99.90
5792;DHT22;2922;53.482;10.006;2023-05-07T06:50:16;10.20;99.90
5792;DHT22;2922;53.482;10.006;2023-05-07T06:52:42;10.30;99.90
5792;DHT22;2922;53.482;10.006;2023-05-07T06:55:08;10.30;99.90
5792;DHT22;2922;53.482;10.006;2023-05-07T06:57:34;10.30;99.90
5792;DHT22;2922;53.482;10.006;2023-05-07T06:59:59;10.30;99.90
5792;DHT22;2922;53.482;10.006;2023-05-07T07:02:25;10.30;99.90
5792;DHT22;2922;53.482;10.006;2023-05-07T07:04:51;10.30;99.90
5792;DHT22;2922;53.482;10.006;2023-05-07T07:07:16;10.30;99.90
5792;DHT22;2922;53.482;10.006;2023-05-07T07:09:42;10.40;99.90
5792;DHT22;2922;53.482;10.006;2023-05-07T07:12:07;10.40;99.90
5792;DHT22;2922;53.482;10.006;2023-05-07T07:14:33;10.40;99.90
5792;DHT22;2922;53.482;10.006;2023-05-07T07:16:59;10.50;99.90
5792;DHT22;2922;53.482;10.006;2023-05-07T07:19:25;10.50;99.90
5792;DHT22;2922;53.482;10.006;2023-05-07T07:21:50;10.50;99.90
5792;DHT22;2922;53.482;10.006;2023-05-07T07:24:16;10.50;99.90
5792;DHT22;2922;53.482;10.006;2023-05-07T07:26:46;10.50;99.90
5792;DHT22;2922;53.482;10.006;2023-05-07T07:29:12;10.60;99.90
5792;DHT22;2922;53.482;10.006;2023-05-07T07:31:37;10.60;99.90
5792;DHT22;2922;53.482;10.006;2023-05-07T07:34:03;10.70;99.90
5792;DHT22;2922;53.482;10.006;2023-05-07T07:36:28;10.70;99.90
5792;DHT22;2922;53.482;10.006;2023-05-07T07:38:54;10.80;99.90
5792;DHT22;2922;53.482;10.006;2023-05-07T07:41:20;10.80;99.90
5792;DHT22;2922;53.482;10.006;2023-05-07T07:43:45;10.80;99.90
5792;DHT22;2922;53.482;10.006;2023-05-07T07:46:12;10.80;99.90
5792;DHT22;2922;53.482;10.006;2023-05-07T07:48:37;10.90;99.90
5792;DHT22;2922;53.482;10.006;2023-05-07T07:51:03;11.00;99.90
5792;DHT22;2922;53.482;10.006;2023-05-07T07:53:29;11.00;99.90
5792;DHT22;2922;53.482;10.006;2023-05-07T07:55:55;11.00;99.90
5792;DHT22;2922;53.482;10.006;2023-05-07T07:58:21;11.00;99.90
5792;DHT22;2922;53.482;10.006;2023-05-07T08:00:47;11.00;99.90
5792;DHT22;2922;53.482;10.006;2023-05-07T08:03:13;11.10;99.90
5792;DHT22;2922;53.482;10.006;2023-05-07T08:05:39;11.10;99.90
5792;DHT22;2922;53.482;10.006;2023-05-07T08:08:05;11.10;99.90
5792;DHT22;2922;53.482;10.006;2023-05-07T08:10:31;11.10;99.90
5792;DHT22;2922;53.482;10.006;2023-05-07T08:13:00;11.10;99.90
5792;DHT22;2922;53.482;10.006;2023-05-07T08:15:26;11.10;99.90
5792;DHT22;2922;53.482;10.006;2023-05-07T08:17:51;11.10;99.90
5792;DHT22;2922;53.482;10.006;2023-05-07T08:20:17;11.00;99.90
5792;DHT22;2922;53.482;10.006;2023-05-07T08:22:43;11.00;99.90
5792;DHT22;2922;53.482;10.006;2023-05-07T08:25:08;11.00;99.90
5792;DHT22;2922;53.482;10.006;2023-05-07T08:27:34;11.10;99.90
5792;DHT22;2922;53.482;10.006;2023-05-07T08:30:00;11.10;99.90
5792;DHT22;2922;53.482;10.006;2023-05-07T08:32:25;11.20;99.90
5792;DHT22;2922;53.482;10.006;2023-05-07T08:34:51;11.20;99.90
5792;DHT22;2922;53.482;10.006;2023-05-07T08:37:17;11.20;99.90
5792;DHT22;2922;53.482;10.006;2023-05-07T08:39:42;11.20;99.90
5792;DHT22;2922;53.482;10.006;2023-05-07T08:42:09;11.20;99.90
5792;DHT22;2922;53.482;10.006;2023-05-07T08:44:35;11.20;99.90
5792;DHT22;2922;53.482;10.006;2023-05-07T08:47:02;11.40;99.90
5792;DHT22;2922;53.482;10.006;2023-05-07T08:49:28;11.50;99.90
5792;DHT22;2922;53.482;10.006;2023-05-07T08:51:54;11.60;99.90
5792;DHT22;2922;53.482;10.006;2023-05-07T08:54:21;11.70;99.90
5792;DHT22;2922;53.482;10.006;2023-05-07T08:56:47;11.80;99.90
5792;DHT22;2922;53.482;10.006;2023-05-07T08:59:13;11.90;99.90
5792;DHT22;2922;53.482;10.006;2023-05-07T09:01:39;11.90;99.90
5792;DHT22;2922;53.482;10.006;2023-05-07T09:04:05;11.90;99.90
5792;DHT22;2922;53.482;10.006;2023-05-07T09:06:32;12.00;99.90
5792;DHT22;2922;53.482;10.006;2023-05-07T09:08:58;12.00;99.90
5792;DHT22;2922;53.482;10.006;2023-05-07T09:11:26;12.00;99.90
5792;DHT22;2922;53.482;10.006;2023-05-07T09:13:56;12.10;99.90
5792;DHT22;2922;53.482;10.006;2023-05-07T09:16:23;12.30;99.90
5792;DHT22;2922;53.482;10.006;2023-05-07T09:18:53;12.40;99.90
5792;DHT22;2922;53.482;10.006;2023-05-07T09:21:20;12.40;99.90
5792;DHT22;2922;53.482;10.006;2023-05-07T09:23:48;12.40;99.90
5792;DHT22;2922;53.482;10.006;2023-05-07T09:26:14;12.30;99.90
5792;DHT22;2922;53.482;10.006;2023-05-07T09:28:43;12.30;99.90
5792;DHT22;2922;53.482;10.006;2023-05-07T09:31:10;12.30;99.90
5792;DHT22;2922;53.482;10.006;2023-05-07T09:33:36;12.40;99.90
5792;DHT22;2922;53.482;10.006;2023-05-07T09:36:05;12.40;99.90
5792;DHT22;2922;53.482;10.006;2023-05-07T09:38:32;12.50;99.90
5792;DHT22;2922;53.482;10.006;2023-05-07T09:41:10;12.50;99.90
5792;DHT22;2922;53.482;10.006;2023-05-07T09:43:37;12.60;99.90
5792;DHT22;2922;53.482;10.006;2023-05-07T09:46:07;12.60;99.90
5792;DHT22;2922;53.482;10.006;2023-05-07T09:48:37;12.70;99.90
5792;DHT22;2922;53.482;10.006;2023-05-07T09:51:08;12.70;99.90
5792;DHT22;2922;53.482;10.006;2023-05-07T09:53:37;12.70;99.90
5792;DHT22;2922;53.482;10.006;2023-05-07T09:56:03;12.80;99.90
5792;DHT22;2922;53.482;10.006;2023-05-07T09:58:29;12.70;99.90
5792;DHT22;2922;53.482;10.006;2023-05-07T10:00:56;12.70;99.90
5792;DHT22;2922;53.482;10.006;2023-05-07T10:03:24;12.80;99.90
5792;DHT22;2922;53.482;10.006;2023-05-07T10:05:53;12.80;99.90
5792;DHT22;2922;53.482;10.006;2023-05-07T10:08:19;12.80;99.90
5792;DHT22;2922;53.482;10.006;2023-05-07T10:10:46;12.80;99.90
5792;DHT22;2922;53.482;10.006;2023-05-07T10:13:12;12.80;99.90
5792;DHT22;2922;53.482;10.006;2023-05-07T10:15:38;12.80;99.90
5792;DHT22;2922;53.482;10.006;2023-05-07T10:18:06;12.80;99.90
5792;DHT22;2922;53.482;10.006;2023-05-07T10:20:33;12.80;99.90
5792;DHT22;2922;53.482;10.006;2023-05-07T10:23:04;12.80;99.90
5792;DHT22;2922;53.482;10.006;2023-05-07T10:25:31;12.90;99.90
5792;DHT22;2922;53.482;10.006;2023-05-07T10:28:04;13.00;99.90
5792;DHT22;2922;53.482;10.006;2023-05-07T10:30:35;13.10;99.90
5792;DHT22;2922;53.482;10.006;2023-05-07T10:33:05;13.10;99.90
5792;DHT22;2922;53.482;10.006;2023-05-07T10:35:40;13.10;99.90
5792;DHT22;2922;53.482;10.006;2023-05-07T10:38:08;13.20;99.90
5792;DHT22;2922;53.482;10.006;2023-05-07T10:40:34;13.30;99.90
5792;DHT22;2922;53.482;10.006;2023-05-07T10:43:02;13.20;99.90
5792;DHT22;2922;53.482;10.006;2023-05-07T10:45:30;13.30;99.90
5792;DHT22;2922;53.482;10.006;2023-05-07T10:48:16;13.40;99.90
5792;DHT22;2922;53.482;10.006;2023-05-07T10:50:42;13.40;99.90
5792;DHT22;2922;53.482;10.006;2023-05-07T10:55:47;13.50;99.90
5792;DHT22;2922;53.482;10.006;2023-05-07T10:58:27;13.60;99.90
5792;DHT22;2922;53.482;10.006;2023-05-07T11:01:00;13.80;99.90
5792;DHT22;2922;53.482;10.006;2023-05-07T11:03:27;14.00;99.90
5792;DHT22;2922;53.482;10.006;2023-05-07T11:06:09;14.00;99.90
5792;DHT22;2922;53.482;10.006;2023-05-07T11:08:55;14.00;99.90
5792;DHT22;2922;53.482;10.006;2023-05-07T11:11:46;14.20;99.90
5792;DHT22;2922;53.482;10.006;2023-05-07T11:14:57;14.30;99.90
5792;DHT22;2922;53.482;10.006;2023-05-07T11:17:22;14.30;99.90
5792;DHT22;2922;53.482;10.006;2023-05-07T11:19:53;14.40;99.90
5792;DHT22;2922;53.482;10.006;2023-05-07T11:24:59;14.60;99.90
5792;DHT22;2922;53.482;10.006;2023-05-07T11:27:25;14.70;99.90
5792;DHT22;2922;53.482;10.006;2023-05-07T11:29:51;14.80;99.90
5792;DHT22;2922;53.482;10.006;2023-05-07T11:32:37;15.00;99.90
5792;DHT22;2922;53.482;10.006;2023-05-07T11:35:03;15.00;99.90
5792;DHT22;2922;53.482;10.006;2023-05-07T11:37:29;15.00;99.90
5792;DHT22;2922;53.482;10.006;2023-05-07T11:40:03;15.00;99.90
5792;DHT22;2922;53.482;10.006;2023-05-07T11:42:34;15.10;99.90
5792;DHT22;2922;53.482;10.006;2023-05-07T11:45:00;15.30;99.90
5792;DHT22;2922;53.482;10.006;2023-05-07T11:47:26;15.40;99.90
5792;DHT22;2922;53.482;10.006;2023-05-07T11:49:55;15.40;99.90
5792;DHT22;2922;53.482;10.006;2023-05-07T11:52:22;15.50;99.90
5792;DHT22;2922;53.482;10.006;2023-05-07T11:54:52;15.50;99.90
5792;DHT22;2922;53.482;10.006;2023-05-07T11:57:18;15.50;99.90
5792;DHT22;2922;53.482;10.006;2023-05-07T11:59:45;15.50;99.90
5792;DHT22;2922;53.482;10.006;2023-05-07T12:02:14;15.50;99.90
5792;DHT22;2922;53.482;10.006;2023-05-07T12:04:40;15.70;99.90
5792;DHT22;2922;53.482;10.006;2023-05-07T12:07:14;15.80;99.90
5792;DHT22;2922;53.482;10.006;2023-05-07T12:09:41;15.90;99.90
5792;DHT22;2922;53.482;10.006;2023-05-07T12:12:07;16.00;99.90
5792;DHT22;2922;53.482;10.006;2023-05-07T12:14:32;16.10;99.90
5792;DHT22;2922;53.482;10.006;2023-05-07T12:17:01;16.20;99.90
5792;DHT22;2922;53.482;10.006;2023-05-07T12:19:31;16.20;99.90
5792;DHT22;2922;53.482;10.006;2023-05-07T12:21:57;16.20;99.90
5792;DHT22;2922;53.482;10.006;2023-05-07T12:24:23;16.20;99.90
5792;DHT22;2922;53.482;10.006;2023-05-07T12:26:49;16.30;99.90
5792;DHT22;2922;53.482;10.006;2023-05-07T12:29:14;16.40;99.90
5792;DHT22;2922;53.482;10.006;2023-05-07T12:31:41;16.50;99.90
5792;DHT22;2922;53.482;10.006;2023-05-07T12:34:07;16.50;99.90
5792;DHT22;2922;53.482;10.006;2023-05-07T12:36:40;16.60;99.90
5792;DHT22;2922;53.482;10.006;2023-05-07T12:39:06;16.60;99.90
5792;DHT22;2922;53.482;10.006;2023-05-07T12:41:51;16.80;99.90
5792;DHT22;2922;53.482;10.006;2023-05-07T12:44:18;16.80;99.90
5792;DHT22;2922;53.482;10.006;2023-05-07T12:46:43;17.00;99.90
5792;DHT22;2922;53.482;10.006;2023-05-07T12:49:09;17.20;99.90
5792;DHT22;2922;53.482;10.006;2023-05-07T12:51:35;17.40;99.90
5792;DHT22;2922;53.482;10.006;2023-05-07T12:54:01;17.60;99.90
5792;DHT22;2922;53.482;10.006;2023-05-07T12:56:26;17.70;99.90
5792;DHT22;2922;53.482;10.006;2023-05-07T12:58:57;17.70;99.90
5792;DHT22;2922;53.482;10.006;2023-05-07T13:01:29;17.70;99.90
5792;DHT22;2922;53.482;10.006;2023-05-07T13:03:55;17.60;99.90
5792;DHT22;2922;53.482;10.006;2023-05-07T13:06:21;17.70;99.90
5792;DHT22;2922;53.482;10.006;2023-05-07T13:08:46;17.70;99.90
5792;DHT22;2922;53.482;10.006;2023-05-07T13:11:13;17.80;99.90
5792;DHT22;2922;53.482;10.006;2023-05-07T13:13:39;17.90;99.90
5792;DHT22;2922;53.482;10.006;2023-05-07T13:16:07;17.90;99.90
5792;DHT22;2922;53.482;10.006;2023-05-07T13:18:33;17.90;99.90
5792;DHT22;2922;53.482;10.006;2023-05-07T13:21:00;17.90;99.90
5792;DHT22;2922;53.482;10.006;2023-05-07T13:23:26;18.00;99.90
5792;DHT22;2922;53.482;10.006;2023-05-07T13:25:52;18.10;99.90
5792;DHT22;2922;53.482;10.006;2023-05-07T13:28:21;18.10;99.90
5792;DHT22;2922;53.482;10.006;2023-05-07T13:30:47;18.30;99.90
5792;DHT22;2922;53.482;10.006;2023-05-07T13:33:13;18.10;99.90
5792;DHT22;2922;53.482;10.006;2023-05-07T13:35:39;18.00;99.90
5792;DHT22;2922;53.482;10.006;2023-05-07T13:38:05;18.10;99.90
5792;DHT22;2922;53.482;10.006;2023-05-07T13:40:30;18.10;99.90
5792;DHT22;2922;53.482;10.006;2023-05-07T13:43:00;18.20;99.90
5792;DHT22;2922;53.482;10.006;2023-05-07T13:45:30;18.30;99.90
5792;DHT22;2922;53.482;10.006;2023-05-07T13:47:56;18.50;99.90
5792;DHT22;2922;53.482;10.006;2023-05-07T13:50:22;18.50;99.90
5792;DHT22;2922;53.482;10.006;2023-05-07T13:52:48;18.40;99.90
5792;DHT22;2922;53.482;10.006;2023-05-07T13:55:20;18.40;99.90
5792;DHT22;2922;53.482;10.006;2023-05-07T13:57:46;18.50;99.90
5792;DHT22;2922;53.482;10.006;2023-05-07T14:00:13;18.70;99.90
5792;DHT22;2922;53.482;10.006;2023-05-07T14:02:39;18.50;99.90
5792;DHT22;2922;53.482;10.006;2023-05-07T14:05:06;18.50;99.90
5792;DHT22;2922;53.482;10.006;2023-05-07T14:07:31;18.50;99.90
5792;DHT22;2922;53.482;10.006;2023-05-07T14:09:57;18.60;99.90
5792;DHT22;2922;53.482;10.006;2023-05-07T14:12:23;18.60;99.90
5792;DHT22;2922;53.482;10.006;2023-05-07T14:14:48;18.60;99.90
5792;DHT22;2922;53.482;10.006;2023-05-07T14:17:16;18.40;99.90
5792;DHT22;2922;53.482;10.006;2023-05-07T14:19:42;18.20;99.90
5792;DHT22;2922;53.482;10.006;2023-05-07T14:22:08;18.10;99.90
5792;DHT22;2922;53.482;10.006;2023-05-07T14:24:33;18.10;99.90
5792;DHT22;2922;53.482;10.006;2023-05-07T14:26:59;18.10;99.90
5792;DHT22;2922;53.482;10.006;2023-05-07T14:29:25;18.00;99.90
5792;DHT22;2922;53.482;10.006;2023-05-07T14:31:51;18.00;99.90
5792;DHT22;2922;53.482;10.006;2023-05-07T14:34:16;17.90;99.90
5792;DHT22;2922;53.482;10.006;2023-05-07T14:36:42;17.90;99.90
5792;DHT22;2922;53.482;10.006;2023-05-07T14:39:09;17.80;99.90
5792;DHT22;2922;53.482;10.006;2023-05-07T14:41:35;17.90;99.90
5792;DHT22;2922;53.482;10.006;2023-05-07T14:44:00;17.90;99.90
5792;DHT22;2922;53.482;10.006;2023-05-07T14:46:26;18.00;99.90
5792;DHT22;2922;53.482;10.006;2023-05-07T14:48:52;18.00;99.90
5792;DHT22;2922;53.482;10.006;2023-05-07T14:51:18;17.90;99.90
5792;DHT22;2922;53.482;10.006;2023-05-07T14:53:44;18.00;99.90
5792;DHT22;2922;53.482;10.006;2023-05-07T14:56:10;18.10;99.90
5792;DHT22;2922;53.482;10.006;2023-05-07T14:58:36;18.10;99.90
5792;DHT22;2922;53.482;10.006;2023-05-07T15:01:03;18.10;99.90
5792;DHT22;2922;53.482;10.006;2023-05-07T15:03:28;18.10;99.90
5792;DHT22;2922;53.482;10.006;2023-05-07T15:05:55;18.10;99.90
5792;DHT22;2922;53.482;10.006;2023-05-07T15:08:20;18.20;99.90
5792;DHT22;2922;53.482;10.006;2023-05-07T15:10:46;18.20;99.90
5792;DHT22;2922;53.482;10.006;2023-05-07T15:13:12;18.40;99.90
5792;DHT22;2922;53.482;10.006;2023-05-07T15:15:41;18.40;99.90
5792;DHT22;2922;53.482;10.006;2023-05-07T15:18:07;18.50;99.90
5792;DHT22;2922;53.482;10.006;2023-05-07T15:20:33;18.50;99.90
5792;DHT22;2922;53.482;10.006;2023-05-07T15:22:59;18.50;99.90
5792;DHT22;2922;53.482;10.006;2023-05-07T15:25:24;18.50;99.90
5792;DHT22;2922;53.482;10.006;2023-05-07T15:27:50;18.30;99.90
5792;DHT22;2922;53.482;10.006;2023-05-07T15:30:16;18.30;99.90
5792;DHT22;2922;53.482;10.006;2023-05-07T15:32:42;18.30;99.90
5792;DHT22;2922;53.482;10.006;2023-05-07T15:35:09;18.20;99.90
5792;DHT22;2922;53.482;10.006;2023-05-07T15:37:35;18.20;99.90
5792;DHT22;2922;53.482;10.006;2023-05-07T15:40:00;18.20;99.90
5792;DHT22;2922;53.482;10.006;2023-05-07T15:42:28;18.20;99.90
5792;DHT22;2922;53.482;10.006;2023-05-07T15:44:53;18.20;99.90
5792;DHT22;2922;53.482;10.006;2023-05-07T15:47:19;18.00;99.90
5792;DHT22;2922;53.482;10.006;2023-05-07T15:49:44;18.00;99.90
5792;DHT22;2922;53.482;10.006;2023-05-07T15:52:10;18.00;99.90
5792;DHT22;2922;53.482;10.006;2023-05-07T15:54:36;17.90;99.90